sensor_id;sensor_type;location;lat;lon;timestamp;temperature;humidity
21238;DHT22;10777;50.828;3.264;2022-09-02T00:01:49;20.20;99.90
21238;DHT22;10777;50.828;3.264;2022-09-02T00:04:18;20.30;99.90
21238;DHT22;10777;50.828;3.264;2022-09-02T00:06:45;20.20;99.90
21238;DHT22;10777;50.828;3.264;2022-09-02T00:09:14;20.00;99.90
21238;DHT22;10777;50.828;3.264;2022-09-02T00:11:42;19.70;99.90
21238;DHT22;10777;50.828;3.264;2022-09-02T00:14:15;19.70;99.90
21238;DHT22;10777;50.828;3.264;2022-09-02T00:16:41;19.60;99.90
21238;DHT22;10777;50.828;3.264;2022-09-02T00:19:09;19.80;99.90
21238;DHT22;10777;50.828;3.264;2022-09-02T00:21:35;19.60;99.90
21238;DHT22;10777;50.828;3.264;2022-09-02T00:24:02;19.40;99.90
21238;DHT22;10777;50.828;3.264;2022-09-02T00:26:28;19.30;99.90
21238;DHT22;10777;50.828;3.264;2022-09-02T00:28:54;19.10;99.90
21238;DHT22;10777;50.828;3.264;2022-09-02T00:31:20;19.00;99.90
21238;DHT22;10777;50.828;3.264;2022-09-02T00:33:46;18.90;99.90
21238;DHT22;10777;50.828;3.264;2022-09-02T00:36:12;18.90;99.90
21238;DHT22;10777;50.828;3.264;2022-09-02T00:38:38;18.80;99.90
21238;DHT22;10777;50.828;3.264;2022-09-02T00:41:07;18.90;99.90
21238;DHT22;10777;50.828;3.264;2022-09-02T00:43:44;18.80;99.90
21238;DHT22;10777;50.828;3.264;2022-09-02T00:46:14;19.10;99.90
21238;DHT22;10777;50.828;3.264;2022-09-02T00:48:45;18.90;99.90
21238;DHT22;10777;50.828;3.264;2022-09-02T00:51:13;18.80;99.90
21238;DHT22;10777;50.828;3.264;2022-09-02T00:53:41;18.80;99.90
21238;DHT22;10777;50.828;3.264;2022-09-02T00:56:12;18.70;99.90
21238;DHT22;10777;50.828;3.264;2022-09-02T00:58:39;19.00;99.90
21238;DHT22;10777;50.828;3.264;2022-09-02T01:01:08;19.10;99.90
21238;DHT22;10777;50.828;3.264;2022-09-02T01:03:36;19.40;99.90
21238;DHT22;10777;50.828;3.264;2022-09-02T01:06:03;19.40;99.90
21238;DHT22;10777;50.828;3.264;2022-09-02T01:08:32;19.30;99.90
21238;DHT22;10777;50.828;3.264;2022-09-02T01:11:00;19.20;99.90
21238;DHT22;10777;50.828;3.264;2022-09-02T01:13:29;19.00;99.90
21238;DHT22;10777;50.828;3.264;2022-09-02T01:15:59;19.30;99.90
21238;DHT22;10777;50.828;3.264;2022-09-02T01:18:28;19.60;99.90
21238;DHT22;10777;50.828;3.264;2022-09-02T01:20:56;19.80;99.90
21238;DHT22;10777;50.828;3.264;2022-09-02T01:23:22;19.60;99.90
21238;DHT22;10777;50.828;3.264;2022-09-02T01:25:48;20.00;99.90
21238;DHT22;10777;50.828;3.264;2022-09-02T01:28:16;20.20;99.90
21238;DHT22;10777;50.828;3.264;2022-09-02T01:30:46;20.00;99.90
21238;DHT22;10777;50.828;3.264;2022-09-02T01:33:13;19.60;99.90
21238;DHT22;10777;50.828;3.264;2022-09-02T01:35:39;19.70;99.90
21238;DHT22;10777;50.828;3.264;2022-09-02T01:38:05;19.60;99.90
21238;DHT22;10777;50.828;3.264;2022-09-02T01:40:32;19.70;99.90
21238;DHT22;10777;50.828;3.264;2022-09-02T01:43:01;19.50;99.90
21238;DHT22;10777;50.828;3.264;2022-09-02T01:45:27;19.60;99.90
21238;DHT22;10777;50.828;3.264;2022-09-02T01:47:54;19.60;99.90
21238;DHT22;10777;50.828;3.264;2022-09-02T01:50:20;19.80;99.90
21238;DHT22;10777;50.828;3.264;2022-09-02T01:52:46;19.70;99.90
21238;DHT22;10777;50.828;3.264;2022-09-02T01:55:12;19.60;99.90
21238;DHT22;10777;50.828;3.264;2022-09-02T01:57:38;19.20;99.90
21238;DHT22;10777;50.828;3.264;2022-09-02T02:00:05;19.40;99.90
21238;DHT22;10777;50.828;3.264;2022-09-02T02:02:32;19.40;99.90
21238;DHT22;10777;50.828;3.264;2022-09-02T02:04:58;19.30;99.90
21238;DHT22;10777;50.828;3.264;2022-09-02T02:07:24;19.70;99.90
21238;DHT22;10777;50.828;3.264;2022-09-02T02:09:50;19.90;99.90
21238;DHT22;10777;50.828;3.264;2022-09-02T02:12:17;19.90;99.90
21238;DHT22;10777;50.828;3.264;2022-09-02T02:14:43;20.30;99.90
21238;DHT22;10777;50.828;3.264;2022-09-02T02:17:09;19.90;99.90
21238;DHT22;10777;50.828;3.264;2022-09-02T02:19:34;19.50;99.90
21238;DHT22;10777;50.828;3.264;2022-09-02T02:22:01;19.10;99.90
21238;DHT22;10777;50.828;3.264;2022-09-02T02:24:27;18.90;99.90
21238;DHT22;10777;50.828;3.264;2022-09-02T02:26:52;18.60;99.90
21238;DHT22;10777;50.828;3.264;2022-09-02T02:29:19;18.40;99.90
21238;DHT22;10777;50.828;3.264;2022-09-02T02:31:45;18.40;99.90
21238;DHT22;10777;50.828;3.264;2022-09-02T02:34:11;18.40;99.90
21238;DHT22;10777;50.828;3.264;2022-09-02T02:36:38;18.50;99.90
21238;DHT22;10777;50.828;3.264;2022-09-02T02:39:05;18.90;99.90
21238;DHT22;10777;50.828;3.264;2022-09-02T02:41:32;18.90;99.90
21238;DHT22;10777;50.828;3.264;2022-09-02T02:43:58;19.10;99.90
21238;DHT22;10777;50.828;3.264;2022-09-02T02:46:23;19.00;99.90
21238;DHT22;10777;50.828;3.264;2022-09-02T02:48:49;18.90;99.90
21238;DHT22;10777;50.828;3.264;2022-09-02T02:51:15;18.90;99.90
21238;DHT22;10777;50.828;3.264;2022-09-02T02:53:41;18.80;99.90
21238;DHT22;10777;50.828;3.264;2022-09-02T02:56:07;18.50;99.90
21238;DHT22;10777;50.828;3.264;2022-09-02T02:58:34;18.20;99.90
21238;DHT22;10777;50.828;3.264;2022-09-02T03:01:00;18.60;99.90
21238;DHT22;10777;50.828;3.264;2022-09-02T03:03:26;18.40;99.90
21238;DHT22;10777;50.828;3.264;2022-09-02T03:05:53;18.50;99.90
21238;DHT22;10777;50.828;3.264;2022-09-02T03:08:22;18.70;99.90
21238;DHT22;10777;50.828;3.264;2022-09-02T03:10:50;18.80;99.90
21238;DHT22;10777;50.828;3.264;2022-09-02T03:13:17;18.80;99.90
21238;DHT22;10777;50.828;3.264;2022-09-02T03:15:43;19.00;99.90
21238;DHT22;10777;50.828;3.264;2022-09-02T03:18:09;18.60;99.90
21238;DHT22;10777;50.828;3.264;2022-09-02T03:20:34;18.00;99.90
21238;DHT22;10777;50.828;3.264;2022-09-02T03:23:00;18.20;99.90
21238;DHT22;10777;50.828;3.264;2022-09-02T03:25:29;18.00;99.90
21238;DHT22;10777;50.828;3.264;2022-09-02T03:27:55;18.20;99.90
21238;DHT22;10777;50.828;3.264;2022-09-02T03:30:24;18.10;99.90
21238;DHT22;10777;50.828;3.264;2022-09-02T03:32:51;18.20;99.90
21238;DHT22;10777;50.828;3.264;2022-09-02T03:35:18;18.20;99.90
21238;DHT22;10777;50.828;3.264;2022-09-02T03:37:45;18.40;99.90
21238;DHT22;10777;50.828;3.264;2022-09-02T03:40:15;18.70;99.90
21238;DHT22;10777;50.828;3.264;2022-09-02T03:42:40;18.80;99.90
21238;DHT22;10777;50.828;3.264;2022-09-02T03:45:08;18.60;99.90
21238;DHT22;10777;50.828;3.264;2022-09-02T03:47:35;18.80;99.90
21238;DHT22;10777;50.828;3.264;2022-09-02T03:50:01;18.70;99.90
21238;DHT22;10777;50.828;3.264;2022-09-02T03:52:28;18.70;99.90
21238;DHT22;10777;50.828;3.264;2022-09-02T03:54:53;18.90;99.90
21238;DHT22;10777;50.828;3.264;2022-09-02T03:57:19;19.00;99.90
21238;DHT22;10777;50.828;3.264;2022-09-02T03:59:47;19.20;99.90
21238;DHT22;10777;50.828;3.264;2022-09-02T04:02:13;19.20;99.90
21238;DHT22;10777;50.828;3.264;2022-09-02T04:04:39;18.90;99.90
21238;DHT22;10777;50.828;3.264;2022-09-02T04:07:05;18.40;99.90
21238;DHT22;10777;50.828;3.264;2022-09-02T04:09:30;18.40;99.90
21238;DHT22;10777;50.828;3.264;2022-09-02T04:11:56;18.50;99.90
21238;DHT22;10777;50.828;3.264;2022-09-02T04:14:21;18.70;99.90
21238;DHT22;10777;50.828;3.264;2022-09-02T04:16:47;18.90;99.90
21238;DHT22;10777;50.828;3.264;2022-09-02T04:19:13;19.00;99.90
21238;DHT22;10777;50.828;3.264;2022-09-02T04:21:40;19.00;99.90
21238;DHT22;10777;50.828;3.264;2022-09-02T04:24:08;19.00;99.90
21238;DHT22;10777;50.828;3.264;2022-09-02T04:26:34;18.80;99.90
21238;DHT22;10777;50.828;3.264;2022-09-02T04:29:00;18.80;99.90
21238;DHT22;10777;50.828;3.264;2022-09-02T04:31:27;18.80;99.90
21238;DHT22;10777;50.828;3.264;2022-09-02T04:33:57;18.90;99.90
21238;DHT22;10777;50.828;3.264;2022-09-02T04:36:25;18.90;99.90
21238;DHT22;10777;50.828;3.264;2022-09-02T04:38:52;18.90;99.90
21238;DHT22;10777;50.828;3.264;2022-09-02T04:41:21;18.90;99.90
21238;DHT22;10777;50.828;3.264;2022-09-02T04:43:48;18.70;99.90
21238;DHT22;10777;50.828;3.264;2022-09-02T04:46:15;18.80;99.90
21238;DHT22;10777;50.828;3.264;2022-09-02T04:48:42;19.00;99.90
21238;DHT22;10777;50.828;3.264;2022-09-02T04:51:11;19.00;99.90
21238;DHT22;10777;50.828;3.264;2022-09-02T04:53:38;19.10;99.90
21238;DHT22;10777;50.828;3.264;2022-09-02T04:56:05;19.10;99.90
21238;DHT22;10777;50.828;3.264;2022-09-02T04:58:31;19.00;99.90
21238;DHT22;10777;50.828;3.264;2022-09-02T05:00:57;18.90;99.90
21238;DHT22;10777;50.828;3.264;2022-09-02T05:03:23;18.90;99.90
21238;DHT22;10777;50.828;3.264;2022-09-02T05:05:59;19.10;99.90
21238;DHT22;10777;50.828;3.264;2022-09-02T05:08:25;19.00;99.90
21238;DHT22;10777;50.828;3.264;2022-09-02T05:10:51;19.00;99.90
21238;DHT22;10777;50.828;3.264;2022-09-02T05:13:17;18.90;99.90
21238;DHT22;10777;50.828;3.264;2022-09-02T05:15:43;18.90;99.90
21238;DHT22;10777;50.828;3.264;2022-09-02T05:18:09;18.80;99.90
21238;DHT22;10777;50.828;3.264;2022-09-02T05:20:37;18.90;99.90
21238;DHT22;10777;50.828;3.264;2022-09-02T05:23:04;18.90;99.90
21238;DHT22;10777;50.828;3.264;2022-09-02T05:25:30;18.80;99.90
21238;DHT22;10777;50.828;3.264;2022-09-02T05:27:56;18.80;99.90
21238;DHT22;10777;50.828;3.264;2022-09-02T05:30:22;18.90;99.90
21238;DHT22;10777;50.828;3.264;2022-09-02T05:32:48;19.00;99.90
21238;DHT22;10777;50.828;3.264;2022-09-02T05:35:14;18.80;99.90
21238;DHT22;10777;50.828;3.264;2022-09-02T05:37:40;18.70;99.90
21238;DHT22;10777;50.828;3.264;2022-09-02T05:40:06;18.80;99.90
21238;DHT22;10777;50.828;3.264;2022-09-02T05:42:32;18.90;99.90
21238;DHT22;10777;50.828;3.264;2022-09-02T05:44:58;19.10;99.90
21238;DHT22;10777;50.828;3.264;2022-09-02T05:47:24;18.90;99.90
21238;DHT22;10777;50.828;3.264;2022-09-02T05:49:50;18.90;99.90
21238;DHT22;10777;50.828;3.264;2022-09-02T05:52:16;18.90;99.90
21238;DHT22;10777;50.828;3.264;2022-09-02T05:54:42;18.90;99.90
21238;DHT22;10777;50.828;3.264;2022-09-02T05:57:11;19.00;99.90
21238;DHT22;10777;50.828;3.264;2022-09-02T05:59:38;19.20;99.90
21238;DHT22;10777;50.828;3.264;2022-09-02T06:02:09;19.20;99.90
21238;DHT22;10777;50.828;3.264;2022-09-02T06:04:41;19.20;99.90
21238;DHT22;10777;50.828;3.264;2022-09-02T06:07:07;19.20;99.90
21238;DHT22;10777;50.828;3.264;2022-09-02T06:09:33;19.30;99.90
21238;DHT22;10777;50.828;3.264;2022-09-02T06:11:59;19.40;99.90
21238;DHT22;10777;50.828;3.264;2022-09-02T06:14:25;19.40;99.90
21238;DHT22;10777;50.828;3.264;2022-09-02T06:16:53;19.40;99.90
21238;DHT22;10777;50.828;3.264;2022-09-02T06:19:20;19.30;99.90
21238;DHT22;10777;50.828;3.264;2022-09-02T06:21:47;19.30;99.90
21238;DHT22;10777;50.828;3.264;2022-09-02T06:24:13;19.70;99.90
21238;DHT22;10777;50.828;3.264;2022-09-02T06:26:39;19.80;99.90
21238;DHT22;10777;50.828;3.264;2022-09-02T06:29:07;19.90;99.90
21238;DHT22;10777;50.828;3.264;2022-09-02T06:31:33;19.30;99.90
21238;DHT22;10777;50.828;3.264;2022-09-02T06:33:59;19.00;99.90
21238;DHT22;10777;50.828;3.264;2022-09-02T06:36:27;18.90;99.90
21238;DHT22;10777;50.828;3.264;2022-09-02T06:38:54;19.40;99.90
21238;DHT22;10777;50.828;3.264;2022-09-02T06:41:23;19.80;99.90
21238;DHT22;10777;50.828;3.264;2022-09-02T06:43:49;19.90;99.90
21238;DHT22;10777;50.828;3.264;2022-09-02T06:46:21;19.90;99.90
21238;DHT22;10777;50.828;3.264;2022-09-02T06:48:47;20.00;99.90
21238;DHT22;10777;50.828;3.264;2022-09-02T06:51:23;20.10;99.90
21238;DHT22;10777;50.828;3.264;2022-09-02T06:53:50;20.30;99.90
21238;DHT22;10777;50.828;3.264;2022-09-02T06:56:16;20.60;99.90
21238;DHT22;10777;50.828;3.264;2022-09-02T06:58:42;20.40;99.90
21238;DHT22;10777;50.828;3.264;2022-09-02T07:01:08;20.60;99.90
21238;DHT22;10777;50.828;3.264;2022-09-02T07:03:34;20.80;99.90
21238;DHT22;10777;50.828;3.264;2022-09-02T07:06:19;20.60;99.90
21238;DHT22;10777;50.828;3.264;2022-09-02T07:08:47;20.70;99.90
21238;DHT22;10777;50.828;3.264;2022-09-02T07:11:17;20.90;99.90
21238;DHT22;10777;50.828;3.264;2022-09-02T07:13:44;20.80;99.90
21238;DHT22;10777;50.828;3.264;2022-09-02T07:16:09;20.90;99.90
21238;DHT22;10777;50.828;3.264;2022-09-02T07:18:35;21.10;99.90
21238;DHT22;10777;50.828;3.264;2022-09-02T07:21:01;21.00;99.90
21238;DHT22;10777;50.828;3.264;2022-09-02T07:23:27;20.90;99.90
21238;DHT22;10777;50.828;3.264;2022-09-02T07:25:53;20.70;99.90
21238;DHT22;10777;50.828;3.264;2022-09-02T07:28:21;20.80;99.90
21238;DHT22;10777;50.828;3.264;2022-09-02T07:30:47;21.10;99.90
21238;DHT22;10777;50.828;3.264;2022-09-02T07:33:14;21.30;99.90
21238;DHT22;10777;50.828;3.264;2022-09-02T07:35:41;21.60;99.90
21238;DHT22;10777;50.828;3.264;2022-09-02T07:38:08;22.00;99.90
21238;DHT22;10777;50.828;3.264;2022-09-02T07:40:35;22.00;99.90
21238;DHT22;10777;50.828;3.264;2022-09-02T07:43:03;21.90;99.90
21238;DHT22;10777;50.828;3.264;2022-09-02T07:45:30;21.90;99.90
21238;DHT22;10777;50.828;3.264;2022-09-02T07:47:56;21.80;99.90
21238;DHT22;10777;50.828;3.264;2022-09-02T07:50:23;21.80;99.90
21238;DHT22;10777;50.828;3.264;2022-09-02T07:52:53;22.00;99.90
21238;DHT22;10777;50.828;3.264;2022-09-02T07:55:19;22.00;99.90
21238;DHT22;10777;50.828;3.264;2022-09-02T07:57:47;22.10;99.90
21238;DHT22;10777;50.828;3.264;2022-09-02T08:00:15;22.30;99.90
21238;DHT22;10777;50.828;3.264;2022-09-02T08:02:42;22.30;99.90
21238;DHT22;10777;50.828;3.264;2022-09-02T08:05:09;22.10;99.90
21238;DHT22;10777;50.828;3.264;2022-09-02T08:07:35;22.30;99.90
21238;DHT22;10777;50.828;3.264;2022-09-02T08:10:03;22.50;99.90
21238;DHT22;10777;50.828;3.264;2022-09-02T08:12:29;22.60;99.90
21238;DHT22;10777;50.828;3.264;2022-09-02T08:14:55;22.50;99.90
21238;DHT22;10777;50.828;3.264;2022-09-02T08:17:22;22.40;99.90
21238;DHT22;10777;50.828;3.264;2022-09-02T08:19:48;22.40;99.90
21238;DHT22;10777;50.828;3.264;2022-09-02T08:22:13;22.50;99.90
21238;DHT22;10777;50.828;3.264;2022-09-02T08:24:39;22.50;99.90
21238;DHT22;10777;50.828;3.264;2022-09-02T08:27:05;22.70;99.90
21238;DHT22;10777;50.828;3.264;2022-09-02T08:29:31;22.70;99.90
21238;DHT22;10777;50.828;3.264;2022-09-02T08:31:57;22.70;99.90
21238;DHT22;10777;50.828;3.264;2022-09-02T08:34:22;22.90;99.90
21238;DHT22;10777;50.828;3.264;2022-09-02T08:36:48;23.00;99.90
21238;DHT22;10777;50.828;3.264;2022-09-02T08:39:14;22.90;99.90
21238;DHT22;10777;50.828;3.264;2022-09-02T08:42:01;23.10;99.90
21238;DHT22;10777;50.828;3.264;2022-09-02T08:44:33;23.20;99.90
21238;DHT22;10777;50.828;3.264;2022-09-02T08:47:03;23.40;99.90
21238;DHT22;10777;50.828;3.264;2022-09-02T08:49:37;23.30;99.90
21238;DHT22;10777;50.828;3.264;2022-09-02T08:52:06;23.20;99.90
21238;DHT22;10777;50.828;3.264;2022-09-02T08:54:40;23.10;99.90
21238;DHT22;10777;50.828;3.264;2022-09-02T08:57:09;23.30;99.90
21238;DHT22;10777;50.828;3.264;2022-09-02T08:59:36;23.40;99.90
21238;DHT22;10777;50.828;3.264;2022-09-02T09:05:20;23.60;99.90
21238;DHT22;10777;50.828;3.264;2022-09-02T09:08:07;23.70;99.90
21238;DHT22;10777;50.828;3.264;2022-09-02T09:10:46;23.60;99.90
21238;DHT22;10777;50.828;3.264;2022-09-02T09:16:40;24.40;99.90
21238;DHT22;10777;50.828;3.264;2022-09-02T09:19:16;24.40;99.90
21238;DHT22;10777;50.828;3.264;2022-09-02T09:21:45;24.60;99.90
21238;DHT22;10777;50.828;3.264;2022-09-02T09:24:34;24.80;99.90
21238;DHT22;10777;50.828;3.264;2022-09-02T09:27:06;24.80;99.90
21238;DHT22;10777;50.828;3.264;2022-09-02T09:29:33;24.90;99.90
21238;DHT22;10777;50.828;3.264;2022-09-02T09:32:02;24.90;99.90
21238;DHT22;10777;50.828;3.264;2022-09-02T09:34:56;25.10;99.90
21238;DHT22;10777;50.828;3.264;2022-09-02T09:37:48;25.30;99.90
21238;DHT22;10777;50.828;3.264;2022-09-02T09:40:25;25.50;99.90
21238;DHT22;10777;50.828;3.264;2022-09-02T09:42:58;25.40;99.90
21238;DHT22;10777;50.828;3.264;2022-09-02T09:45:30;25.40;99.90
21238;DHT22;10777;50.828;3.264;2022-09-02T09:48:21;25.40;99.90
21238;DHT22;10777;50.828;3.264;2022-09-02T09:51:09;25.50;99.90
21238;DHT22;10777;50.828;3.264;2022-09-02T09:53:36;25.40;99.90
21238;DHT22;10777;50.828;3.264;2022-09-02T09:56:21;25.50;99.90
21238;DHT22;10777;50.828;3.264;2022-09-02T09:58:48;25.70;99.90
21238;DHT22;10777;50.828;3.264;2022-09-02T10:01:32;25.60;99.90
21238;DHT22;10777;50.828;3.264;2022-09-02T10:04:24;25.90;99.90
21238;DHT22;10777;50.828;3.264;2022-09-02T10:06:51;26.20;99.90
21238;DHT22;10777;50.828;3.264;2022-09-02T10:09:34;26.10;99.90
21238;DHT22;10777;50.828;3.264;2022-09-02T10:12:03;26.20;99.90
21238;DHT22;10777;50.828;3.264;2022-09-02T10:14:44;26.30;99.90
21238;DHT22;10777;50.828;3.264;2022-09-02T10:17:42;26.20;99.90
21238;DHT22;10777;50.828;3.264;2022-09-02T10:20:36;26.50;99.90
21238;DHT22;10777;50.828;3.264;2022-09-02T10:23:26;26.60;99.90
21238;DHT22;10777;50.828;3.264;2022-09-02T10:26:19;26.70;99.90
21238;DHT22;10777;50.828;3.264;2022-09-02T10:32:20;26.80;99.90
21238;DHT22;10777;50.828;3.264;2022-09-02T10:35:10;26.80;99.90
21238;DHT22;10777;50.828;3.264;2022-09-02T10:40:44;27.00;99.90
21238;DHT22;10777;50.828;3.264;2022-09-02T10:46:21;27.20;99.90
21238;DHT22;10777;50.828;3.264;2022-09-02T10:49:01;27.20;99.90
21238;DHT22;10777;50.828;3.264;2022-09-02T10:51:44;27.20;99.90
21238;DHT22;10777;50.828;3.264;2022-09-02T10:54:39;27.20;99.90
21238;DHT22;10777;50.828;3.264;2022-09-02T10:57:16;27.20;99.90
21238;DHT22;10777;50.828;3.264;2022-09-02T10:59:52;27.30;99.90
21238;DHT22;10777;50.828;3.264;2022-09-02T11:02:25;27.70;99.90
21238;DHT22;10777;50.828;3.264;2022-09-02T11:04:58;27.90;99.90
21238;DHT22;10777;50.828;3.264;2022-09-02T11:07:35;27.90;99.90
21238;DHT22;10777;50.828;3.264;2022-09-02T11:10:14;27.90;99.90
21238;DHT22;10777;50.828;3.264;2022-09-02T11:13:04;28.10;99.90
21238;DHT22;10777;50.828;3.264;2022-09-02T11:15:44;28.10;99.90
21238;DHT22;10777;50.828;3.264;2022-09-02T11:18:35;28.20;99.90
21238;DHT22;10777;50.828;3.264;2022-09-02T11:24:04;28.30;99.90
21238;DHT22;10777;50.828;3.264;2022-09-02T11:26:40;28.50;99.90
21238;DHT22;10777;50.828;3.264;2022-09-02T11:29:18;28.30;99.90
21238;DHT22;10777;50.828;3.264;2022-09-02T11:32:25;28.30;99.90
21238;DHT22;10777;50.828;3.264;2022-09-02T11:34:53;28.40;99.90
21238;DHT22;10777;50.828;3.264;2022-09-02T11:37:42;28.50;99.90
21238;DHT22;10777;50.828;3.264;2022-09-02T11:40:18;28.50;99.90
21238;DHT22;10777;50.828;3.264;2022-09-02T11:43:14;28.60;99.90
21238;DHT22;10777;50.828;3.264;2022-09-02T11:46:02;28.40;99.90
21238;DHT22;10777;50.828;3.264;2022-09-02T11:51:53;28.50;99.90
21238;DHT22;10777;50.828;3.264;2022-09-02T11:54:26;28.50;99.90
21238;DHT22;10777;50.828;3.264;2022-09-02T11:56:59;28.60;99.90
21238;DHT22;10777;50.828;3.264;2022-09-02T12:02:36;28.80;99.90
21238;DHT22;10777;50.828;3.264;2022-09-02T12:05:43;29.00;99.90
21238;DHT22;10777;50.828;3.264;2022-09-02T12:08:13;29.00;99.90
21238;DHT22;10777;50.828;3.264;2022-09-02T12:11:05;28.70;99.90
21238;DHT22;10777;50.828;3.264;2022-09-02T12:13:47;29.00;99.90
21238;DHT22;10777;50.828;3.264;2022-09-02T12:16:34;29.40;99.90
21238;DHT22;10777;50.828;3.264;2022-09-02T12:19:23;29.50;99.90
21238;DHT22;10777;50.828;3.264;2022-09-02T12:22:22;29.30;99.90
21238;DHT22;10777;50.828;3.264;2022-09-02T12:24:59;29.20;99.90
21238;DHT22;10777;50.828;3.264;2022-09-02T12:27:29;29.30;99.90
21238;DHT22;10777;50.828;3.264;2022-09-02T12:29:58;29.20;99.90
21238;DHT22;10777;50.828;3.264;2022-09-02T12:35:48;29.10;99.90
21238;DHT22;10777;50.828;3.264;2022-09-02T12:38:22;29.10;99.90
21238;DHT22;10777;50.828;3.264;2022-09-02T12:40:54;29.00;99.80
21238;DHT22;10777;50.828;3.264;2022-09-02T12:43:26;28.80;99.60
21238;DHT22;10777;50.828;3.264;2022-09-02T12:45:59;28.30;99.90
21238;DHT22;10777;50.828;3.264;2022-09-02T12:48:37;28.60;99.90
21238;DHT22;10777;50.828;3.264;2022-09-02T12:51:05;28.60;99.90
21238;DHT22;10777;50.828;3.264;2022-09-02T12:53:39;28.40;99.90
21238;DHT22;10777;50.828;3.264;2022-09-02T12:56:18;28.30;99.90
21238;DHT22;10777;50.828;3.264;2022-09-02T12:58:49;28.70;99.90
21238;DHT22;10777;50.828;3.264;2022-09-02T13:01:21;29.40;99.90
21238;DHT22;10777;50.828;3.264;2022-09-02T13:04:05;30.00;99.10
21238;DHT22;10777;50.828;3.264;2022-09-02T13:13:26;29.50;99.20
21238;DHT22;10777;50.828;3.264;2022-09-02T13:16:22;30.30;98.50
21238;DHT22;10777;50.828;3.264;2022-09-02T13:22:09;30.60;97.80
21238;DHT22;10777;50.828;3.264;2022-09-02T13:28:01;31.50;96.30
21238;DHT22;10777;50.828;3.264;2022-09-02T13:31:03;31.00;96.60
21238;DHT22;10777;50.828;3.264;2022-09-02T13:33:26;30.80;96.60
21238;DHT22;10777;50.828;3.264;2022-09-02T13:35:55;30.60;97.10
21238;DHT22;10777;50.828;3.264;2022-09-02T13:38:25;30.60;96.50
21238;DHT22;10777;50.828;3.264;2022-09-02T13:40:51;30.70;95.90
21238;DHT22;10777;50.828;3.264;2022-09-02T13:43:20;30.50;96.00
21238;DHT22;10777;50.828;3.264;2022-09-02T13:45:47;30.30;96.50
21238;DHT22;10777;50.828;3.264;2022-09-02T13:48:17;30.20;96.50
21238;DHT22;10777;50.828;3.264;2022-09-02T13:50:47;30.10;96.70
21238;DHT22;10777;50.828;3.264;2022-09-02T13:53:20;30.00;96.70
21238;DHT22;10777;50.828;3.264;2022-09-02T13:55:52;29.90;96.70
21238;DHT22;10777;50.828;3.264;2022-09-02T13:58:23;29.90;96.70
21238;DHT22;10777;50.828;3.264;2022-09-02T14:03:45;29.50;97.50
21238;DHT22;10777;50.828;3.264;2022-09-02T14:06:13;29.40;97.80
21238;DHT22;10777;50.828;3.264;2022-09-02T14:08:40;29.50;98.20
21238;DHT22;10777;50.828;3.264;2022-09-02T14:11:06;29.40;98.40
21238;DHT22;10777;50.828;3.264;2022-09-02T14:13:33;29.00;99.90
21238;DHT22;10777;50.828;3.264;2022-09-02T14:16:23;27.90;99.90
21238;DHT22;10777;50.828;3.264;2022-09-02T14:19:07;27.20;99.90
21238;DHT22;10777;50.828;3.264;2022-09-02T14:21:44;26.90;99.90
21238;DHT22;10777;50.828;3.264;2022-09-02T14:24:13;26.80;99.90
21238;DHT22;10777;50.828;3.264;2022-09-02T14:26:43;26.60;99.90
21238;DHT22;10777;50.828;3.264;2022-09-02T14:29:14;26.30;99.90
21238;DHT22;10777;50.828;3.264;2022-09-02T14:31:40;26.20;99.90
21238;DHT22;10777;50.828;3.264;2022-09-02T14:34:32;26.00;99.90
21238;DHT22;10777;50.828;3.264;2022-09-02T14:36:59;25.70;99.90
21238;DHT22;10777;50.828;3.264;2022-09-02T14:39:25;25.60;99.90
21238;DHT22;10777;50.828;3.264;2022-09-02T14:41:52;25.60;99.90
21238;DHT22;10777;50.828;3.264;2022-09-02T14:44:34;25.20;99.90
21238;DHT22;10777;50.828;3.264;2022-09-02T14:47:04;25.20;99.90
21238;DHT22;10777;50.828;3.264;2022-09-02T14:49:36;25.30;99.90
21238;DHT22;10777;50.828;3.264;2022-09-02T14:52:15;25.20;99.90
21238;DHT22;10777;50.828;3.264;2022-09-02T14:54:45;24.80;99.90
21238;DHT22;10777;50.828;3.264;2022-09-02T14:57:23;24.20;99.90
21238;DHT22;10777;50.828;3.264;2022-09-02T14:59:54;23.90;99.90
21238;DHT22;10777;50.828;3.264;2022-09-02T15:02:32;23.70;99.90
21238;DHT22;10777;50.828;3.264;2022-09-02T15:05:02;23.70;99.90
21238;DHT22;10777;50.828;3.264;2022-09-02T15:07:28;24.00;99.90
21238;DHT22;10777;50.828;3.264;2022-09-02T15:09:55;23.90;99.90
21238;DHT22;10777;50.828;3.264;2022-09-02T15:12:23;23.60;99.90
21238;DHT22;10777;50.828;3.264;2022-09-02T15:14:51;23.60;99.90
21238;DHT22;10777;50.828;3.264;2022-09-02T15:17:17;23.70;99.90
21238;DHT22;10777;50.828;3.264;2022-09-02T15:19:43;23.90;99.90
21238;DHT22;10777;50.828;3.264;2022-09-02T15:22:09;23.80;99.90
21238;DHT22;10777;50.828;3.264;2022-09-02T15:24:34;23.90;99.90
21238;DHT22;10777;50.828;3.264;2022-09-02T15:27:00;24.00;99.90
21238;DHT22;10777;50.828;3.264;2022-09-02T15:29:26;24.20;99.90
21238;DHT22;10777;50.828;3.264;2022-09-02T15:31:52;24.30;99.90
21238;DHT22;10777;50.828;3.264;2022-09-02T15:34:21;24.20;99.90
21238;DHT22;10777;50.828;3.264;2022-09-02T15:36:47;24.10;99.90
21238;DHT22;10777;50.828;3.264;2022-09-02T15:39:13;23.70;99.90
21238;DHT22;10777;50.828;3.264;2022-09-02T15:41:41;23.70;99.90
21238;DHT22;10777;50.828;3.264;2022-09-02T15:44:07;24.00;99.90
21238;DHT22;10777;50.828;3.264;2022-09-02T15:46:34;24.20;99.90
21238;DHT22;10777;50.828;3.264;2022-09-02T15:49:04;24.20;99.90
21238;DHT22;10777;50.828;3.264;2022-09-02T15:51:31;24.50;99.90
21238;DHT22;10777;50.828;3.264;2022-09-02T15:54:00;24.30;99.90
21238;DHT22;10777;50.828;3.264;2022-09-02T15:56:27;24.50;99.90
21238;DHT22;10777;50.828;3.264;2022-09-02T15:58:57;24.40;99.90
21238;DHT22;10777;50.828;3.264;2022-09-02T16:01:24;24.50;99.90
21238;DHT22;10777;50.828;3.264;2022-09-02T16:03:50;24.40;99.90
21238;DHT22;10777;50.828;3.264;2022-09-02T16:06:16;24.60;99.90
21238;DHT22;10777;50.828;3.264;2022-09-02T16:08:42;24.80;99.90
21238;DHT22;10777;50.828;3.264;2022-09-02T16:11:08;24.80;99.90
21238;DHT22;10777;50.828;3.264;2022-09-02T16:13:35;24.70;99.90
21238;DHT22;10777;50.828;3.264;2022-09-02T16:16:05;24.90;99.90
21238;DHT22;10777;50.828;3.264;2022-09-02T16:18:32;25.20;99.90
21238;DHT22;10777;50.828;3.264;2022-09-02T16:20:59;25.10;99.90
21238;DHT22;10777;50.828;3.264;2022-09-02T16:23:25;25.00;99.90
21238;DHT22;10777;50.828;3.264;2022-09-02T16:26:14;24.90;99.90
21238;DHT22;10777;50.828;3.264;2022-09-02T16:28:44;25.10;99.90
21238;DHT22;10777;50.828;3.264;2022-09-02T16:31:12;25.00;99.90
21238;DHT22;10777;50.828;3.264;2022-09-02T16:33:41;25.10;99.90
21238;DHT22;10777;50.828;3.264;2022-09-02T16:36:09;25.10;99.90